createdAt,value
2022-12-05T00:01:24.754Z,3.12
2022-12-05T00:06:56.515Z,3.12
2022-12-05T00:12:28.359Z,3.12
2022-12-05T00:18:00.081Z,3.12
2022-12-05T00:23:31.789Z,3.12
2022-12-05T00:29:03.541Z,3.12
2022-12-05T00:34:41.298Z,3.12
2022-12-05T00:40:13.197Z,3.12
2022-12-05T00:45:45.069Z,3.12
2022-12-05T00:51:22.678Z,3.12
2022-12-05T00:56:54.472Z,3.12
2022-12-05T01:02:32.273Z,3.12
2022-12-05T01:08:10.169Z,3.12
2022-12-05T01:13:47.760Z,3.12
2022-12-05T01:19:19.527Z,3.12
2022-12-05T01:24:51.187Z,3.12
2022-12-05T01:30:23.214Z,3.12
2022-12-05T01:41:24.741Z,3.12
2022-12-05T01:46:56.393Z,3.12
2022-12-05T01:52:28.361Z,3.12
2022-12-05T01:58:05.936Z,3.12
2022-12-05T02:09:21.153Z,3.12
2022-12-05T02:14:59.035Z,3.08
2022-12-05T02:20:36.827Z,3.08
2022-12-05T02:26:14.374Z,3.12
2022-12-05T02:31:52.984Z,3.08
2022-12-05T02:37:25.166Z,3.08
2022-12-05T02:39:37.336Z,3.08
2022-12-05T02:45:15.248Z,3.08
2022-12-05T02:50:47.114Z,3.08
2022-12-05T02:56:18.789Z,3.08
2022-12-05T03:01:56.440Z,3.08
2022-12-05T03:07:28.120Z,3.08
2022-12-05T03:12:59.379Z,3.08
2022-12-05T03:18:30.678Z,3.08
2022-12-05T03:24:08.164Z,3.08
2022-12-05T03:29:46.168Z,3.08
2022-12-05T03:35:18.599Z,3.12
2022-12-05T03:40:55.813Z,3.08
2022-12-05T03:46:33.432Z,3.08
2022-12-05T03:52:10.905Z,3.08
2022-12-05T03:57:48.574Z,3.08
2022-12-05T04:03:26.407Z,3.08
2022-12-05T04:09:04.244Z,3.08
2022-12-05T04:14:41.655Z,3.12
2022-12-05T04:20:13.522Z,3.12
2022-12-05T04:25:46.619Z,3.12
2022-12-05T04:31:18.077Z,3.12
2022-12-05T04:36:55.331Z,3.08
2022-12-05T04:42:33.066Z,3.12
2022-12-05T04:48:04.960Z,3.12
2022-12-05T04:53:36.707Z,3.12
2022-12-05T04:59:08.493Z,3.12
2022-12-05T05:04:40.147Z,3.15
2022-12-05T05:10:11.956Z,3.12
2022-12-05T05:15:43.846Z,3.15
2022-12-05T05:21:21.455Z,3.18
2022-12-05T05:26:58.979Z,3.15
2022-12-05T05:32:30.558Z,3.15
2022-12-05T05:38:02.040Z,3.15
2022-12-05T05:43:39.953Z,3.15
2022-12-05T05:49:11.656Z,3.15
2022-12-05T05:54:43.224Z,3.15
2022-12-05T06:00:20.762Z,3.18
2022-12-05T06:05:57.806Z,3.18
2022-12-05T06:11:29.110Z,3.18
2022-12-05T06:17:00.805Z,3.18
2022-12-05T06:22:32.673Z,3.18
2022-12-05T06:28:10.339Z,3.18
2022-12-05T06:33:42.217Z,3.18
2022-12-05T06:39:13.829Z,3.22
2022-12-05T06:44:45.422Z,3.22
2022-12-05T06:50:16.825Z,3.22
2022-12-05T06:55:48.524Z,3.22
2022-12-05T07:01:20.123Z,3.22
2022-12-05T07:06:51.714Z,3.25
2022-12-05T07:12:23.504Z,3.22
2022-12-05T07:17:55.279Z,3.22
2022-12-05T07:23:26.978Z,3.25
2022-12-05T07:28:58.807Z,3.25
2022-12-05T07:34:30.698Z,3.25
2022-12-05T07:40:02.748Z,3.29
2022-12-05T07:51:06.148Z,3.29
2022-12-05T07:56:39.205Z,3.29
2022-12-05T08:02:10.025Z,3.29
2022-12-05T08:07:41.456Z,3.29
2022-12-05T08:13:13.731Z,3.29
2022-12-05T08:18:46.053Z,3.29
2022-12-05T08:24:18.116Z,3.29
2022-12-05T08:29:49.565Z,3.32
2022-12-05T08:35:21.594Z,3.29
2022-12-05T08:40:53.266Z,3.32
2022-12-05T08:46:25.133Z,3.32
2022-12-05T08:51:57.022Z,3.32
2022-12-05T08:57:29.046Z,3.35
2022-12-05T09:03:00.820Z,3.39
2022-12-05T09:08:32.617Z,3.39
2022-12-05T09:14:04.373Z,3.39
2022-12-05T09:19:36.225Z,3.39
2022-12-05T09:25:07.877Z,3.39
2022-12-05T09:30:39.706Z,3.42
2022-12-05T09:36:11.340Z,3.39
2022-12-05T09:41:48.999Z,3.39
2022-12-05T09:52:50.263Z,3.42
2022-12-05T09:58:21.705Z,3.42
2022-12-05T10:03:53.098Z,3.42
2022-12-05T10:09:24.878Z,3.42
2022-12-05T10:14:56.919Z,3.42
2022-12-05T10:20:28.449Z,3.42
2022-12-05T10:26:00.231Z,3.42
2022-12-05T10:31:32.377Z,3.42
2022-12-05T10:37:05.672Z,3.45
2022-12-05T10:42:37.166Z,3.45
2022-12-05T10:48:09.404Z,3.45
2022-12-05T10:53:40.990Z,3.49
2022-12-05T10:59:12.785Z,3.49
2022-12-05T11:04:44.594Z,3.49
2022-12-05T11:10:16.156Z,3.52
2022-12-05T11:15:53.724Z,3.52
2022-12-05T11:21:19.588Z,3.56
2022-12-05T11:26:51.801Z,3.56
2022-12-05T11:32:23.624Z,3.59
2022-12-05T11:37:55.859Z,3.59
2022-12-05T11:43:27.910Z,3.59
2022-12-05T11:49:00.012Z,3.59
2022-12-05T11:55:03.326Z,3.59
2022-12-05T12:00:04.223Z,3.59
2022-12-05T12:05:36.227Z,3.59
2022-12-05T12:11:08.751Z,3.59
2022-12-05T12:16:40.641Z,3.56
2022-12-05T12:22:12.480Z,3.56
2022-12-05T12:27:44.876Z,3.56
2022-12-05T12:38:51.113Z,3.52
2022-12-05T12:44:19.509Z,3.56
2022-12-05T12:49:51.955Z,3.52
2022-12-05T12:55:23.792Z,3.52
2022-12-05T13:00:56.948Z,3.52
2022-12-05T13:06:28.620Z,3.52
2022-12-05T13:12:00.334Z,3.49
2022-12-05T13:17:32.367Z,3.52
2022-12-05T13:23:07.867Z,3.52
2022-12-05T13:28:36.477Z,3.49
2022-12-05T13:39:40.663Z,3.45
2022-12-05T13:45:12.969Z,3.45
2022-12-05T13:50:45.549Z,3.42
2022-12-05T13:56:17.727Z,3.42
2022-12-05T14:01:55.689Z,3.45
2022-12-05T14:07:21.886Z,3.42
2022-12-05T14:12:53.764Z,3.42
2022-12-05T14:18:26.076Z,3.42
2022-12-05T14:23:58.262Z,3.39
2022-12-05T14:29:30.298Z,3.39
2022-12-05T14:35:02.840Z,3.39
2022-12-05T14:40:35.027Z,3.39
2022-12-05T14:46:07.458Z,3.39
2022-12-05T14:51:39.443Z,3.39
2022-12-05T14:57:11.681Z,3.39
2022-12-05T15:02:43.594Z,3.39
2022-12-05T15:08:15.890Z,3.39
2022-12-05T15:13:47.941Z,3.39
2022-12-05T15:19:19.806Z,3.39
2022-12-05T15:24:57.499Z,3.35
2022-12-05T15:30:29.483Z,3.35
2022-12-05T15:36:01.425Z,3.35
2022-12-05T15:41:39.764Z,3.35
2022-12-05T15:47:11.844Z,3.35
2022-12-05T15:52:44.130Z,3.35
2022-12-05T15:54:55.726Z,3.35
2022-12-05T16:02:46.769Z,3.35
2022-12-05T16:08:18.593Z,3.35
2022-12-05T16:13:50.280Z,3.32
2022-12-05T16:19:28.449Z,3.32
2022-12-05T16:25:06.282Z,3.32
2022-12-05T16:30:38.202Z,3.35
2022-12-05T16:36:16.283Z,3.35
2022-12-05T16:41:48.157Z,3.35
2022-12-05T16:47:20.096Z,3.32
2022-12-05T16:52:52.223Z,3.35
2022-12-05T16:58:24.406Z,3.35
2022-12-05T17:03:56.310Z,3.35
2022-12-05T17:09:28.610Z,3.35
2022-12-05T17:15:01.443Z,3.32
2022-12-05T17:20:38.918Z,3.35
2022-12-05T17:26:10.653Z,3.35
2022-12-05T17:31:42.573Z,3.35
2022-12-05T17:37:14.263Z,3.35
2022-12-05T17:42:46.022Z,3.35
2022-12-05T17:48:23.565Z,3.35
2022-12-05T17:53:55.693Z,3.35
2022-12-05T17:59:27.529Z,3.35
2022-12-05T18:07:20.017Z,3.35
2022-12-05T18:12:51.621Z,3.35
2022-12-05T18:18:25.486Z,3.32
2022-12-05T18:23:57.137Z,3.32
2022-12-05T18:29:35.101Z,3.35
2022-12-05T18:35:12.567Z,3.32
2022-12-05T18:40:39.039Z,3.32
2022-12-05T18:46:11.256Z,3.32
2022-12-05T18:51:42.796Z,3.32
2022-12-05T18:57:14.992Z,3.32
2022-12-05T19:02:47.115Z,3.32
2022-12-05T19:08:25.099Z,3.32
2022-12-05T19:13:57.072Z,3.32
2022-12-05T19:19:28.898Z,3.32
2022-12-05T19:25:01.187Z,3.32
2022-12-05T19:30:38.953Z,3.32
2022-12-05T19:36:10.623Z,3.29
2022-12-05T19:41:42.364Z,3.29
2022-12-05T19:47:13.938Z,3.29
2022-12-05T19:52:51.825Z,3.25
2022-12-05T19:58:23.905Z,3.25
2022-12-05T20:09:25.752Z,3.25
2022-12-05T20:14:57.437Z,3.25
2022-12-05T20:20:29.696Z,3.25
2022-12-05T20:26:01.640Z,3.25
2022-12-05T20:31:40.462Z,3.22
2022-12-05T20:42:46.462Z,3.22
2022-12-05T20:48:14.498Z,3.18
2022-12-05T20:53:46.593Z,3.18
2022-12-05T20:59:18.165Z,3.18
2022-12-05T21:04:49.905Z,3.18
2022-12-05T21:10:21.985Z,3.15
2022-12-05T21:15:54.665Z,3.18
2022-12-05T21:26:56.388Z,3.18
2022-12-05T21:32:28.166Z,3.15
2022-12-05T21:37:59.788Z,3.15
2022-12-05T21:43:31.834Z,3.15
2022-12-05T21:49:03.432Z,3.18
2022-12-05T21:54:35.507Z,3.18
2022-12-05T22:05:37.195Z,3.18
2022-12-05T22:11:09.456Z,3.18
2022-12-05T22:16:41.749Z,3.18
2022-12-05T22:22:13.883Z,3.18
2022-12-05T22:27:45.972Z,3.18
2022-12-05T22:33:17.822Z,3.18
2022-12-05T22:38:49.874Z,3.15
2022-12-05T22:44:22.095Z,3.18
2022-12-05T22:49:54.602Z,3.18
2022-12-05T22:55:26.637Z,3.18
2022-12-05T23:06:28.156Z,3.18
2022-12-05T23:12:00.281Z,3.18
2022-12-05T23:17:32.598Z,3.18
2022-12-05T23:23:04.822Z,3.18
2022-12-05T23:28:37.024Z,3.18
2022-12-05T23:34:09.259Z,3.18
2022-12-05T23:39:41.370Z,3.18
2022-12-05T23:45:13.292Z,3.18
2022-12-05T23:50:45.481Z,3.22
2022-12-05T23:56:17.145Z,3.22
